Time;durP1;ratioP1;P1;durP2;ratioP2;P2;SDS_P1;SDS_P2;PMS_P1;PMS_P2;Temp;Humidity;BMP_temperature;BMP_pressure;BME280_temperature;BME280_humidity;BME280_pressure;Samples;Min_cycle;Max_cycle;Signal;HPM_P1;HPM_P2
2022/07/11 00:01:24;;;;;;;7.40;4.50;;;;;;;11.20;77.68;100028.34;105773;1281;139970;-76
2022/07/11 00:03:56;;;;;;;6.50;4.60;;;;;;;11.17;77.70;100025.34;105976;1280;108732;-77
2022/07/11 00:06:29;;;;;;;4.80;4.20;;;;;;;11.13;77.75;100027.73;105743;1281;138848;-75
2022/07/11 00:09:01;;;;;;;8.60;4.30;;;;;;;11.09;77.85;100025.80;105779;1281;97856;-78
2022/07/11 00:11:33;;;;;;;7.00;3.90;;;;;;;11.05;77.80;100028.21;105832;1281;139018;-76
2022/07/11 00:14:06;;;;;;;6.20;4.00;;;;;;;11.02;77.86;100022.43;105980;1281;109121;-77
2022/07/11 00:16:39;;;;;;;8.80;3.80;;;;;;;11.00;77.99;100022.83;106164;1280;109442;-78
2022/07/11 00:19:11;;;;;;;5.90;3.30;;;;;;;10.99;77.95;100020.13;105697;1281;140398;-77
2022/07/11 00:21:43;;;;;;;4.80;3.00;;;;;;;10.97;78.07;100020.52;105864;1281;97729;-77
2022/07/11 00:24:17;;;;;;;7.40;2.90;;;;;;;10.95;78.09;100018.51;105661;1281;138771;-77
2022/07/11 00:26:52;;;;;;;6.60;2.70;;;;;;;10.93;78.17;100018.41;105985;1281;107309;-77
2022/07/11 00:29:24;;;;;;;4.20;3.10;;;;;;;10.90;78.18;100019.19;105888;1281;108708;-77
2022/07/11 00:31:56;;;;;;;6.80;3.00;;;;;;;10.87;78.11;100016.88;105740;1281;139262;-77
2022/07/11 00:34:29;;;;;;;9.40;3.00;;;;;;;10.86;78.24;100021.27;105960;1281;97739;-77
2022/07/11 00:37:01;;;;;;;6.60;2.90;;;;;;;10.83;78.25;100021.74;105809;1281;138759;-77
2022/07/11 00:39:33;;;;;;;4.30;2.70;;;;;;;10.80;78.28;100019.92;105879;1281;108926;-76
2022/07/11 00:42:06;;;;;;;5.10;2.70;;;;;;;10.77;78.44;100018.48;105891;1280;138988;-77
2022/07/11 00:44:39;;;;;;;5.80;2.70;;;;;;;10.73;78.52;100015.11;106120;1281;98217;-77
2022/07/11 00:47:11;;;;;;;6.10;3.00;;;;;;;10.72;78.49;100010.81;105919;1281;97858;-79
2022/07/11 00:49:44;;;;;;;5.60;2.70;;;;;;;10.70;78.58;100007.95;105771;1281;140656;-77
2022/07/11 00:52:17;;;;;;;4.50;2.60;;;;;;;10.67;78.64;100010.15;105920;1281;109005;-78
2022/07/11 00:54:50;;;;;;;5.00;2.50;;;;;;;10.65;78.63;100007.95;105807;1281;138902;-77
2022/07/11 00:57:22;;;;;;;3.40;2.20;;;;;;;10.64;78.62;100012.36;105875;1281;97881;-77
2022/07/11 00:59:55;;;;;;;7.00;2.90;;;;;;;10.62;78.67;100013.10;105802;1281;139897;-77
2022/07/11 01:02:28;;;;;;;4.00;2.50;;;;;;;10.61;78.73;100012.30;105866;1281;112717;-78
2022/07/11 01:05:00;;;;;;;5.10;3.00;;;;;;;10.58;78.71;100014.80;105780;1280;107788;-79
2022/07/11 01:07:34;;;;;;;8.60;2.90;;;;;;;10.55;78.78;100015.24;105573;1281;138808;-78
2022/07/11 01:10:08;;;;;;;6.00;3.10;;;;;;;10.51;78.74;100011.94;105618;1281;97843;-77
2022/07/11 01:12:40;;;;;;;8.20;3.30;;;;;;;10.48;78.88;100010.51;105968;1281;139334;-78
2022/07/11 01:15:16;;;;;;;9.90;3.00;;;;;;;10.46;78.93;100007.79;105758;1281;112533;-77
2022/07/11 01:17:48;;;;;;;10.10;2.60;;;;;;;10.45;78.99;100009.74;105661;1281;139794;-77
2022/07/11 01:20:22;;;;;;;9.20;2.70;;;;;;;10.43;79.04;100013.95;105841;1281;108842;-77
2022/07/11 01:23:01;;;;;;;5.70;2.70;;;;;;;10.42;79.08;100011.77;105869;1281;97954;-78
2022/07/11 01:25:34;;;;;;;8.10;2.50;;;;;;;10.40;79.07;100006.92;105872;1281;139662;-78
2022/07/11 01:28:08;;;;;;;4.30;2.30;;;;;;;10.40;79.16;100009.70;105907;1281;112517;-78
2022/07/11 01:30:40;;;;;;;4.80;2.60;;;;;;;10.40;79.24;100008.33;105791;1281;138944;-77
2022/07/11 01:33:13;;;;;;;12.00;2.70;;;;;;;10.38;79.17;100003.02;105978;1281;109004;-77
2022/07/11 01:35:45;;;;;;;7.80;2.70;;;;;;;10.36;79.25;100002.73;105771;1281;139468;-77
2022/07/11 01:38:18;;;;;;;4.80;2.50;;;;;;;10.35;79.35;100003.48;105952;1281;97850;-77
2022/07/11 01:40:50;;;;;;;9.40;2.60;;;;;;;10.32;79.36;100000.98;106157;1281;112697;-78
2022/07/11 01:43:23;;;;;;;4.10;2.80;;;;;;;10.29;79.45;99994.95;105717;1281;138886;-78
2022/07/11 01:45:56;;;;;;;3.80;2.30;;;;;;;10.30;79.64;99992.86;105704;1281;108996;-77
2022/07/11 01:48:28;;;;;;;9.00;2.70;;;;;;;10.31;79.53;99992.84;105797;1281;138824;-77
2022/07/11 01:51:01;;;;;;;5.30;2.70;;;;;;;10.32;79.68;99991.24;105844;1281;97813;-77
2022/07/11 01:53:33;;;;;;;5.30;2.70;;;;;;;10.33;79.65;99986.16;105618;1281;138648;-76
2022/07/11 01:56:06;;;;;;;8.00;2.40;;;;;;;10.33;79.61;99988.58;105772;1281;108972;-77
2022/07/11 01:58:59;;;;;;;4.30;2.60;;;;;;;10.33;79.72;99986.35;105845;1281;109071;-77
2022/07/11 02:01:31;;;;;;;9.20;2.60;;;;;;;10.33;79.75;99987.89;105865;1281;138821;-78
2022/07/11 02:04:05;;;;;;;9.90;3.00;;;;;;;10.33;79.80;99984.95;105952;1281;97872;-78
2022/07/11 02:06:37;;;;;;;7.40;2.60;;;;;;;10.33;79.89;99989.83;106057;1281;138947;-78
2022/07/11 02:09:10;;;;;;;6.40;2.60;;;;;;;10.35;80.01;99986.98;105860;1281;107405;-77
2022/07/11 02:11:42;;;;;;;8.00;2.50;;;;;;;10.36;80.03;99984.32;106097;1281;138950;-78
2022/07/11 02:14:15;;;;;;;11.80;3.10;;;;;;;10.38;79.99;99985.46;105913;1281;97931;-78
2022/07/11 02:16:47;;;;;;;10.70;3.70;;;;;;;10.40;80.03;99992.85;105937;1281;97954;-77
2022/07/11 02:19:19;;;;;;;7.60;3.30;;;;;;;10.43;80.02;99992.60;105900;1281;138815;-78
2022/07/11 02:21:52;;;;;;;11.90;3.40;;;;;;;10.44;79.92;99991.88;105908;1281;108158;-77
2022/07/11 02:24:24;;;;;;;8.60;3.30;;;;;;;10.44;79.91;99993.26;106143;1281;138742;-79
2022/07/11 02:26:57;;;;;;;5.00;3.00;;;;;;;10.43;79.96;99995.89;106278;1281;97833;-78
2022/07/11 02:29:29;;;;;;;7.10;3.10;;;;;;;10.42;80.02;99995.39;106345;1281;95596;-77
2022/07/11 02:32:03;;;;;;;9.10;3.30;;;;;;;10.42;79.91;99992.97;105872;1281;112397;-78
2022/07/11 02:34:35;;;;;;;9.10;3.60;;;;;;;10.43;79.99;99995.73;107115;1281;107809;-79
2022/07/11 02:37:08;;;;;;;5.60;3.60;;;;;;;10.43;79.93;99997.27;106017;1281;138931;-78
2022/07/11 02:39:40;;;;;;;13.10;3.80;;;;;;;10.44;80.00;100002.46;105784;1281;97967;-78
2022/07/11 02:42:12;;;;;;;16.80;3.60;;;;;;;10.45;80.15;99997.54;105643;1281;140157;-78
2022/07/11 02:44:45;;;;;;;13.70;4.00;;;;;;;10.46;80.16;99999.25;105960;1281;112346;-79
2022/07/11 02:47:17;;;;;;;9.70;3.60;;;;;;;10.46;80.08;100000.83;105931;1281;108415;-78
2022/07/11 02:49:49;;;;;;;8.90;3.60;;;;;;;10.46;80.04;99999.95;105880;1281;139945;-78
2022/07/11 02:52:22;;;;;;;11.80;3.90;;;;;;;10.48;80.09;99999.02;106126;1281;98620;-78
2022/07/11 02:54:54;;;;;;;9.90;4.10;;;;;;;10.50;80.15;99997.20;105624;1281;139760;-79
2022/07/11 02:57:27;;;;;;;13.30;4.00;;;;;;;10.52;80.08;99998.67;105660;1281;112562;-79
2022/07/11 02:59:59;;;;;;;12.20;4.30;;;;;;;10.54;80.04;100001.56;105593;1282;138991;-78
2022/07/11 03:02:31;;;;;;;15.70;4.20;;;;;;;10.55;80.08;100008.10;105751;1281;107997;-77
2022/07/11 03:05:04;;;;;;;12.30;4.60;;;;;;;10.56;80.12;100003.90;105895;1281;97823;-78
2022/07/11 03:07:37;;;;;;;9.40;4.40;;;;;;;10.58;80.07;100005.59;105812;1281;139410;-78
2022/07/11 03:10:10;;;;;;;10.90;4.00;;;;;;;10.61;79.98;100005.34;105900;1281;112497;-78
2022/07/11 03:12:43;;;;;;;12.90;4.50;;;;;;;10.63;80.20;100009.08;106038;1281;139014;-78
2022/07/11 03:15:16;;;;;;;12.60;3.90;;;;;;;10.67;80.19;100007.37;106147;1281;107661;-76
2022/07/11 03:17:48;;;;;;;8.40;3.90;;;;;;;10.69;80.16;100006.93;105843;1281;139784;-77
2022/07/11 03:20:21;;;;;;;11.50;4.90;;;;;;;10.72;80.16;100006.30;105956;1281;97863;-76
2022/07/11 03:22:53;;;;;;;9.20;3.70;;;;;;;10.75;80.27;100007.94;105808;1281;111216;-77
2022/07/11 03:25:26;;;;;;;14.20;4.40;;;;;;;10.77;80.25;100011.67;105841;1281;138931;-78
2022/07/11 03:27:58;;;;;;;10.30;4.10;;;;;;;10.79;80.30;100009.20;105923;1280;110084;-76
2022/07/11 03:30:31;;;;;;;11.40;4.20;;;;;;;10.82;80.42;100012.22;105804;1281;139493;-76
2022/07/11 03:33:03;;;;;;;9.50;4.20;;;;;;;10.83;80.33;100014.41;105922;1281;97844;-77
2022/07/11 03:35:41;;;;;;;11.40;4.80;;;;;;;10.85;80.39;100014.67;105791;1281;138916;-77
2022/07/11 03:38:18;;;;;;;9.50;4.60;;;;;;;10.87;80.41;100017.38;105934;1280;108968;-77
2022/07/11 03:40:51;;;;;;;9.30;4.40;;;;;;;10.93;80.46;100013.89;106013;1281;108657;-76
2022/07/11 03:43:24;;;;;;;11.70;4.90;;;;;;;10.98;80.44;100015.79;105865;1281;138840;-77
2022/07/11 03:45:58;;;;;;;13.50;4.80;;;;;;;11.07;80.55;100014.92;105769;1281;97837;-77
2022/07/11 03:48:31;;;;;;;13.80;4.30;;;;;;;11.13;80.36;100013.81;105808;1281;138934;-76
2022/07/11 03:51:03;;;;;;;10.30;4.40;;;;;;;11.20;80.36;100009.88;105970;1281;108833;-76
2022/07/11 03:53:36;;;;;;;12.00;4.10;;;;;;;11.28;80.27;100005.06;105798;1281;139225;-76
2022/07/11 03:56:09;;;;;;;8.00;4.30;;;;;;;11.35;80.21;100004.62;106058;1281;97974;-78
2022/07/11 03:58:41;;;;;;;8.80;3.90;;;;;;;11.42;80.17;100002.05;106006;1281;98007;-76
2022/07/11 04:01:14;;;;;;;7.40;4.10;;;;;;;11.51;80.10;100003.27;105890;1281;138599;-75
2022/07/11 04:03:47;;;;;;;11.60;4.40;;;;;;;11.60;80.07;100004.66;106059;1281;108862;-76
2022/07/11 04:06:20;;;;;;;9.40;4.20;;;;;;;11.70;80.06;100008.44;105889;1281;143803;-76
2022/07/11 04:08:52;;;;;;;13.80;4.10;;;;;;;11.80;79.82;100005.58;105891;1281;97960;-76
2022/07/11 04:11:24;;;;;;;7.70;4.50;;;;;;;11.92;79.83;100002.88;105890;1281;97829;-76
2022/07/11 04:13:57;;;;;;;10.70;4.50;;;;;;;12.08;79.72;100005.15;105879;1281;111476;-76
2022/07/11 04:16:29;;;;;;;11.00;4.60;;;;;;;12.24;79.52;100000.29;105898;1280;108936;-76
2022/07/11 04:19:02;;;;;;;15.90;4.80;;;;;;;12.38;79.11;99994.96;105905;1281;139194;-76
2022/07/11 04:21:35;;;;;;;12.50;4.00;;;;;;;12.53;78.76;99983.66;105867;1280;97833;-77
2022/07/11 04:24:08;;;;;;;8.70;4.20;;;;;;;12.66;78.42;99975.38;105811;1281;139375;-76
2022/07/11 04:26:40;;;;;;;10.50;4.20;;;;;;;12.77;78.02;99966.40;106003;1281;113732;-75
2022/07/11 04:29:14;;;;;;;8.30;3.90;;;;;;;12.80;77.93;99960.50;105963;1281;108905;-75
2022/07/11 04:31:46;;;;;;;9.50;3.90;;;;;;;12.79;77.80;99965.91;105740;1281;138879;-75
2022/07/11 04:34:19;;;;;;;7.70;3.80;;;;;;;12.83;78.19;99966.30;106144;1281;97951;-75
2022/07/11 04:36:52;;;;;;;6.50;3.90;;;;;;;12.82;77.82;99964.03;106469;1281;138948;-75
2022/07/11 04:39:25;;;;;;;11.30;4.70;;;;;;;12.79;78.09;99968.20;107115;1281;112605;-75
2022/07/11 04:41:58;;;;;;;11.70;4.70;;;;;;;12.80;78.45;99970.95;106983;1280;141682;-75
2022/07/11 04:44:31;;;;;;;10.70;4.10;;;;;;;12.85;78.41;99965.14;106265;1280;108961;-74
2022/07/11 04:47:03;;;;;;;13.60;4.40;;;;;;;12.84;78.15;99965.16;105805;1281;97866;-73
2022/07/11 04:49:36;;;;;;;10.90;4.70;;;;;;;12.84;78.35;99967.09;106998;1280;138672;-74
2022/07/11 04:52:09;;;;;;;9.50;4.10;;;;;;;12.88;78.40;99982.96;107116;1280;112274;-74
2022/07/11 04:54:41;;;;;;;10.80;4.10;;;;;;;12.88;78.38;99983.14;106953;1280;139721;-74
2022/07/11 04:57:13;;;;;;;10.20;4.40;;;;;;;12.86;78.21;99981.33;107116;1280;108738;-74
2022/07/11 04:59:46;;;;;;;8.00;4.30;;;;;;;12.85;78.34;99981.19;106989;1281;138945;-74
2022/07/11 05:02:18;;;;;;;10.90;4.60;;;;;;;12.86;78.34;99981.15;107128;1280;95833;-74
2022/07/11 05:04:51;;;;;;;8.60;4.50;;;;;;;12.86;78.32;99990.75;107106;1280;112448;-74
2022/07/11 05:07:23;;;;;;;10.00;4.30;;;;;;;12.89;78.62;99993.20;106009;1281;138738;-74
2022/07/11 05:09:57;;;;;;;13.60;4.70;;;;;;;12.94;78.75;99997.85;106071;1278;108912;-74
2022/07/11 05:12:29;;;;;;;12.40;5.00;;;;;;;12.99;78.75;100002.15;106215;1280;138964;-75
2022/07/11 05:15:02;;;;;;;10.90;5.10;;;;;;;13.02;78.51;100003.25;105985;1281;97891;-74
2022/07/11 05:17:35;;;;;;;12.80;5.00;;;;;;;13.05;78.65;100005.92;105736;1281;139136;-74
2022/07/11 05:20:09;;;;;;;10.60;4.90;;;;;;;13.10;78.67;100011.78;105937;1281;108967;-76
2022/07/11 05:22:41;;;;;;;10.60;5.30;;;;;;;13.15;78.82;100015.55;106153;1281;107812;-74
2022/07/11 05:25:14;;;;;;;13.30;6.50;;;;;;;13.19;78.57;100016.46;105738;1280;139003;-74
2022/07/11 05:27:47;;;;;;;10.80;5.50;;;;;;;13.20;78.34;100014.13;105934;1280;97865;-75
2022/07/11 05:30:20;;;;;;;11.50;6.60;;;;;;;13.21;78.37;100016.17;105830;1280;138753;-75
2022/07/11 05:32:52;;;;;;;11.60;6.60;;;;;;;13.19;78.10;100014.71;105943;1281;109013;-75
2022/07/11 05:35:26;;;;;;;16.10;7.10;;;;;;;13.18;78.03;100018.44;105889;1281;108393;-76
2022/07/11 05:37:58;;;;;;;11.30;7.30;;;;;;;13.19;78.01;100017.88;106074;1281;97897;-75
2022/07/11 05:40:31;;;;;;;8.80;6.20;;;;;;;13.23;77.99;100021.17;106390;1281;96592;-75
2022/07/11 05:43:03;;;;;;;12.80;5.50;;;;;;;13.27;77.85;100014.86;107028;1280;139833;-76
2022/07/11 05:45:35;;;;;;;6.30;4.30;;;;;;;13.32;77.77;100017.61;105972;1281;108989;-75
2022/07/11 05:48:09;;;;;;;5.80;3.70;;;;;;;13.35;77.53;100015.38;105780;1281;138926;-77
2022/07/11 05:50:41;;;;;;;8.30;3.70;;;;;;;13.40;77.51;100018.80;105981;1281;97863;-76
2022/07/11 05:53:14;;;;;;;7.50;3.30;;;;;;;13.45;77.33;100018.18;105885;1281;97818;-75
2022/07/11 05:55:47;;;;;;;7.50;3.50;;;;;;;13.56;77.53;100016.09;105762;1281;138911;-76
2022/07/11 05:58:21;;;;;;;7.60;3.20;;;;;;;13.74;77.30;100018.54;105887;1281;107896;-75
2022/07/11 06:00:54;;;;;;;5.90;3.20;;;;;;;13.91;76.99;100023.29;105712;1281;138821;-75
2022/07/11 06:03:27;;;;;;;7.40;3.00;;;;;;;14.01;76.67;100024.92;105955;1281;97839;-76
2022/07/11 06:05:59;;;;;;;9.60;2.50;;;;;;;14.08;76.27;100028.94;105980;1279;138785;-75
2022/07/11 06:08:41;;;;;;;6.40;2.70;;;;;;;14.13;75.98;100027.98;105972;1281;112489;-76
2022/07/11 06:11:15;;;;;;;7.00;2.90;;;;;;;14.14;75.53;100032.12;106250;1280;107759;-75
2022/07/11 06:13:49;;;;;;;8.60;2.60;;;;;;;14.12;75.56;100030.98;105456;1281;138653;-76
2022/07/11 06:16:22;;;;;;;12.40;3.30;;;;;;;14.09;75.47;100032.90;106413;1281;96997;-76
2022/07/11 06:18:54;;;;;;;7.30;3.60;;;;;;;14.05;75.49;100032.41;105794;1279;139771;-78
2022/07/11 06:21:27;;;;;;;6.60;3.10;;;;;;;14.02;75.70;100030.48;105875;1281;111446;-76
2022/07/11 06:23:59;;;;;;;8.30;3.40;;;;;;;14.00;75.90;100031.43;105752;1280;139323;-76
2022/07/11 06:26:32;;;;;;;8.60;3.40;;;;;;;13.98;75.57;100029.42;105932;1281;108227;-76
2022/07/11 06:29:04;;;;;;;9.00;4.30;;;;;;;13.96;75.74;100027.61;105897;1281;97942;-75
2022/07/11 06:31:37;;;;;;;7.60;3.90;;;;;;;13.97;75.70;100026.35;105872;1281;139515;-77
2022/07/11 06:34:09;;;;;;;7.00;3.20;;;;;;;13.98;75.71;100031.34;105954;1280;111556;-76
2022/07/11 06:36:42;;;;;;;6.50;3.40;;;;;;;13.97;75.64;100028.95;105857;1281;138773;-77
2022/07/11 06:39:15;;;;;;;10.40;3.40;;;;;;;13.95;75.60;100029.39;106349;1281;108841;-76
2022/07/11 06:41:47;;;;;;;16.30;3.60;;;;;;;13.96;75.85;100031.64;106021;1281;139352;-77
2022/07/11 06:44:20;;;;;;;7.70;3.80;;;;;;;13.94;75.47;100026.66;105919;1281;98095;-77
2022/07/11 06:46:59;;;;;;;8.80;3.30;;;;;;;13.93;75.30;100027.05;105943;1281;112512;-77
2022/07/11 06:49:31;;;;;;;9.90;4.10;;;;;;;13.94;75.26;100027.16;106182;1280;139297;-76
2022/07/11 06:52:05;;;;;;;8.10;4.00;;;;;;;13.99;75.51;100029.20;105969;1281;108932;-75
2022/07/11 06:54:37;;;;;;;9.80;4.10;;;;;;;14.04;75.38;100024.96;105863;1280;139955;-76
2022/07/11 06:57:09;;;;;;;11.20;4.00;;;;;;;14.07;75.33;100027.05;106554;1280;97926;-76
2022/07/11 06:59:43;;;;;;;8.00;3.70;;;;;;;14.12;75.26;100028.58;105761;1281;140395;-76
2022/07/11 07:02:16;;;;;;;9.20;3.70;;;;;;;14.14;75.19;100028.10;105953;1280;110223;-77
2022/07/11 07:04:48;;;;;;;7.80;4.40;;;;;;;14.15;75.11;100030.33;105949;1281;109216;-76
2022/07/11 07:07:21;;;;;;;6.60;3.60;;;;;;;14.13;75.05;100031.65;105800;1281;138781;-75
2022/07/11 07:09:54;;;;;;;8.20;4.10;;;;;;;14.10;74.87;100031.62;105994;1281;97722;-77
2022/07/11 07:12:26;;;;;;;10.60;3.80;;;;;;;14.10;75.02;100027.08;106222;1281;138959;-76
2022/07/11 07:15:01;;;;;;;13.80;4.40;;;;;;;14.32;75.35;100022.99;106364;1280;108852;-77
2022/07/11 07:17:34;;;;;;;7.90;4.70;;;;;;;15.11;75.15;100018.98;105621;1281;139098;-76
2022/07/11 07:20:10;;;;;;;10.50;5.60;;;;;;;16.70;74.24;100019.75;105855;1281;97876;-76
2022/07/11 07:22:43;;;;;;;8.60;4.80;;;;;;;18.63;71.08;100015.02;106193;1280;97869;-78
2022/07/11 07:25:15;;;;;;;10.70;5.50;;;;;;;19.88;68.18;100013.48;105863;1281;138678;-77
2022/07/11 07:27:48;;;;;;;9.70;5.50;;;;;;;20.58;65.69;100011.71;106624;1281;108853;-77
2022/07/11 07:30:21;;;;;;;9.20;5.50;;;;;;;20.70;62.97;100009.71;105935;1281;138238;-77
2022/07/11 07:32:53;;;;;;;8.00;5.50;;;;;;;20.52;62.20;100014.12;106145;1281;98113;-77
2022/07/11 07:35:26;;;;;;;8.10;6.00;;;;;;;20.43;61.80;100012.17;105965;1280;97934;-76
2022/07/11 07:38:00;;;;;;;9.10;5.10;;;;;;;20.97;61.21;100005.87;105960;1280;112502;-76
2022/07/11 07:40:32;;;;;;;8.60;4.80;;;;;;;20.96;60.06;100004.46;106257;1281;108893;-77
2022/07/11 07:43:06;;;;;;;8.10;5.40;;;;;;;20.77;59.36;100003.84;106046;1281;137499;-77
2022/07/11 07:45:38;;;;;;;7.10;4.20;;;;;;;20.66;59.55;100001.89;106027;1281;97911;-77
2022/07/11 07:48:11;;;;;;;6.60;3.80;;;;;;;20.56;59.20;100001.15;105934;1280;138291;-77
2022/07/11 07:50:43;;;;;;;5.90;3.80;;;;;;;20.49;59.12;100001.98;106087;1281;111030;-77
2022/07/11 07:53:16;;;;;;;6.60;4.00;;;;;;;20.34;59.06;100003.68;105910;1281;109621;-77
2022/07/11 07:55:49;;;;;;;7.40;2.90;;;;;;;20.08;58.42;100005.42;106091;1280;137918;-77
2022/07/11 07:58:22;;;;;;;6.40;3.50;;;;;;;19.86;58.49;99999.68;106345;1281;98347;-77
2022/07/11 08:03:45;;;;;;;3.20;2.40;;;;;;;20.13;58.19;100000.27;105941;1280;112452;-76
2022/07/11 08:06:17;;;;;;;7.20;2.80;;;;;;;21.57;58.34;99991.04;105853;1281;138067;-77
2022/07/11 08:08:50;;;;;;;4.40;1.90;;;;;;;23.44;55.26;99983.50;106103;1281;108853;-77
2022/07/11 08:11:23;;;;;;;3.60;2.10;;;;;;;24.34;52.33;99979.23;106007;1281;97830;-77
2022/07/11 08:14:07;;;;;;;4.10;1.90;;;;;;;25.71;51.27;99965.16;105969;1281;97823;-77
2022/07/11 08:16:41;;;;;;;4.50;1.70;;;;;;;27.26;49.00;99962.38;105976;1280;111866;-77
2022/07/11 08:19:13;;;;;;;3.00;1.70;;;;;;;27.52;46.72;99966.01;106006;1281;138091;-75
2022/07/11 08:21:46;;;;;;;4.20;2.00;;;;;;;26.94;46.01;99969.55;105918;1281;108867;-76
2022/07/11 08:24:18;;;;;;;4.20;1.60;;;;;;;26.25;45.69;99970.58;105869;1281;138110;-77
2022/07/11 08:26:50;;;;;;;2.90;1.20;;;;;;;25.79;45.70;99974.45;105994;1281;97881;-78
2022/07/11 08:29:23;;;;;;;1.80;1.40;;;;;;;25.34;43.96;99975.77;106121;1280;112427;-77
2022/07/11 08:31:55;;;;;;;4.60;1.30;;;;;;;24.69;44.89;99985.85;105834;1281;138782;-77
2022/07/11 08:34:28;;;;;;;3.80;1.60;;;;;;;24.84;46.01;99983.83;105945;1280;107045;-77
2022/07/11 08:37:00;;;;;;;2.30;1.20;;;;;;;25.94;44.77;99981.01;105883;1281;139570;-77
2022/07/11 08:39:33;;;;;;;2.00;1.30;;;;;;;26.23;43.70;99982.27;106006;1281;97843;-77
2022/07/11 08:42:06;;;;;;;1.80;1.00;;;;;;;26.25;43.75;99980.80;105848;1281;136851;-76
2022/07/11 08:44:39;;;;;;;2.10;1.30;;;;;;;26.08;42.96;99981.86;105976;1281;107804;-76
2022/07/11 08:47:12;;;;;;;1.50;1.20;;;;;;;25.66;42.14;99977.65;106192;1281;107294;-78
2022/07/11 08:49:46;;;;;;;2.50;1.50;;;;;;;25.28;42.84;99980.21;105888;1280;137942;-78
2022/07/11 08:52:19;;;;;;;2.10;1.60;;;;;;;25.35;43.65;99979.39;105946;1281;97887;-78
2022/07/11 08:54:52;;;;;;;1.50;1.20;;;;;;;25.71;42.58;99978.88;106280;1280;138033;-78
2022/07/11 08:57:24;;;;;;;1.60;0.90;;;;;;;25.90;41.63;99976.85;105903;1281;107817;-76
2022/07/11 08:59:58;;;;;;;2.70;1.00;;;;;;;25.61;41.24;99978.86;105785;1281;139849;-77
2022/07/11 09:02:31;;;;;;;1.30;0.90;;;;;;;25.85;40.97;99976.82;106021;1281;97891;-78
2022/07/11 09:05:05;;;;;;;1.20;0.50;;;;;;;26.62;40.98;99981.65;106228;1281;97739;-78
2022/07/11 09:07:45;;;;;;;0.90;0.50;;;;;;;27.45;40.27;99974.81;106204;1279;137579;-78
2022/07/11 09:10:18;;;;;;;1.80;0.90;;;;;;;28.21;38.88;99980.33;106161;1280;108988;-77
2022/07/11 09:13:05;;;;;;;0.90;0.60;;;;;;;28.55;38.03;99978.35;105853;1280;138150;-77
2022/07/11 09:15:40;;;;;;;1.10;0.70;;;;;;;28.44;37.25;99981.06;105892;1281;97896;-77
2022/07/11 09:18:31;;;;;;;1.30;0.60;;;;;;;28.75;36.97;99975.41;105936;1281;138098;-77
2022/07/11 09:26:58;;;;;;;1.80;0.70;;;;;;;29.82;35.77;99970.11;105280;1284;109050;-77
2022/07/11 09:29:31;;;;;;;1.50;0.40;;;;;;;29.33;34.08;99973.10;105429;1284;97850;-78
2022/07/11 09:32:04;;;;;;;0.90;0.60;;;;;;;28.57;34.16;99981.15;105482;1283;97703;-76
2022/07/11 09:34:36;;;;;;;0.20;0.20;;;;;;;28.24;35.14;99983.92;105394;1284;112357;-78
2022/07/11 09:37:16;;;;;;;0.60;0.20;;;;;;;28.37;35.18;99983.11;105361;1284;138930;-77
2022/07/11 09:39:48;;;;;;;2.00;0.60;;;;;;;28.18;34.58;99979.39;105484;1284;108878;-77
2022/07/11 09:42:20;;;;;;;0.70;0.50;;;;;;;28.16;34.49;99978.73;105733;1284;138438;-77
2022/07/11 09:45:10;;;;;;;1.20;0.90;;;;;;;28.71;35.18;99971.13;105474;1284;97875;-76
2022/07/11 09:47:49;;;;;;;1.30;0.20;;;;;;;29.16;34.39;99966.77;105863;1284;426092;-77
2022/07/11 09:50:23;;;;;;;0.60;0.20;;;;;;;29.03;33.80;99964.39;105393;1284;108879;-76
2022/07/11 09:53:04;;;;;;;0.70;0.70;;;;;;;28.76;33.36;99962.23;105643;1284;108685;-77
2022/07/11 09:55:39;;;;;;;0.70;0.50;;;;;;;28.74;33.20;99962.20;105573;1284;137982;-78
2022/07/11 09:58:29;;;;;;;0.30;0.10;;;;;;;28.34;32.79;99966.17;105780;1281;98024;-77
2022/07/11 10:01:01;;;;;;;1.00;0.50;;;;;;;27.84;33.49;99967.57;105834;1281;138004;-76
2022/07/11 10:03:35;;;;;;;0.50;0.30;;;;;;;27.33;33.33;99968.06;106299;1281;108838;-76
2022/07/11 10:06:27;;;;;;;0.40;0.10;;;;;;;26.64;33.71;99973.59;105878;1281;137926;-77
2022/07/11 10:09:01;;;;;;;2.80;0.30;;;;;;;26.15;34.52;99969.16;105915;1281;97880;-77
2022/07/11 10:11:35;;;;;;;0.50;0.30;;;;;;;25.75;34.84;99967.83;105651;1281;137917;-77
2022/07/11 10:14:08;;;;;;;1.60;0.30;;;;;;;25.36;35.20;99971.66;105941;1281;112837;-78
2022/07/11 10:16:49;;;;;;;1.10;0.30;;;;;;;24.86;35.54;99967.69;105888;1281;108855;-78
2022/07/11 10:19:42;;;;;;;1.00;0.40;;;;;;;24.43;36.07;99973.39;105960;1281;137879;-77
2022/07/11 10:22:36;;;;;;;0.60;0.50;;;;;;;24.01;36.97;99974.23;105902;1281;97956;-78
2022/07/11 10:25:19;;;;;;;1.80;0.30;;;;;;;23.88;37.56;99975.15;105883;1281;137788;-78
2022/07/11 10:28:07;;;;;;;2.10;0.50;;;;;;;24.16;38.09;99975.55;106666;1280;111190;-77
2022/07/11 10:30:51;;;;;;;2.60;0.40;;;;;;;24.40;37.90;99974.02;105958;1280;137961;-78
2022/07/11 10:33:24;;;;;;;2.20;0.20;;;;;;;24.80;38.34;99971.05;105984;1281;108744;-77
2022/07/11 10:35:58;;;;;;;0.60;0.20;;;;;;;25.26;37.83;99969.68;105879;1281;138158;-77
2022/07/11 10:38:30;;;;;;;0.80;0.30;;;;;;;25.58;37.72;99975.08;106592;1281;96505;-78
2022/07/11 10:41:03;;;;;;;0.60;0.30;;;;;;;25.59;37.55;99981.34;105986;1281;112931;-77
2022/07/11 10:43:41;;;;;;;0.90;0.30;;;;;;;25.40;37.56;99979.88;105862;1281;138117;-78
2022/07/11 10:46:21;;;;;;;2.00;0.60;;;;;;;25.21;37.37;99985.77;106199;1280;107784;-78
2022/07/11 10:49:03;;;;;;;3.80;0.50;;;;;;;24.84;37.39;99985.26;105930;1280;139203;-77
2022/07/11 10:51:48;;;;;;;0.40;0.40;;;;;;;24.43;37.40;99989.19;105984;1280;97856;-78
2022/07/11 10:55:05;;;;;;;1.80;1.10;;;;;;;23.82;38.11;99987.73;105776;1281;137898;-79
2022/07/11 10:57:49;;;;;;;1.20;0.80;;;;;;;23.20;39.30;99994.74;105962;1281;108908;-78
2022/07/11 11:00:23;;;;;;;3.50;0.60;;;;;;;22.53;40.44;99996.12;106295;1281;137936;-77
2022/07/11 11:03:08;;;;;;;0.50;0.40;;;;;;;22.00;41.86;99992.01;106272;1281;97831;-77
2022/07/11 11:05:52;;;;;;;1.70;1.40;;;;;;;21.56;42.73;99994.91;105886;1280;137905;-76
2022/07/11 11:08:44;;;;;;;2.60;0.80;;;;;;;21.20;44.04;99994.79;106112;1281;112556;-77
2022/07/11 11:11:41;;;;;;;1.50;0.80;;;;;;;20.92;45.01;99996.90;105873;1281;107755;-78
2022/07/11 11:14:26;;;;;;;1.20;1.10;;;;;;;20.81;46.07;99998.24;106174;1280;108367;-77
2022/07/11 11:17:41;;;;;;;1.40;1.20;;;;;;;20.96;46.49;99998.83;105992;1281;97850;-76
2022/07/11 11:20:32;;;;;;;1.60;0.80;;;;;;;21.45;47.43;99998.45;105783;1281;97898;-77
2022/07/11 11:23:20;;;;;;;1.70;0.80;;;;;;;22.01;47.35;100000.59;105918;1281;112564;-76
2022/07/11 11:25:53;;;;;;;3.30;0.60;;;;;;;22.52;46.23;99997.85;105836;1281;137981;-78
2022/07/11 11:28:25;;;;;;;2.30;1.30;;;;;;;22.91;45.83;99995.86;106310;1281;106850;-79
2022/07/11 11:31:00;;;;;;;0.70;0.60;;;;;;;23.36;45.84;99990.10;105748;1281;138334;-77
2022/07/11 11:33:34;;;;;;;1.10;0.60;;;;;;;23.68;44.62;99990.32;106227;1280;97862;-77
2022/07/11 11:36:09;;;;;;;1.40;0.80;;;;;;;24.00;44.27;99988.02;105868;1281;138054;-77
2022/07/11 11:38:42;;;;;;;0.70;0.60;;;;;;;24.36;43.66;99986.64;106126;1280;109479;-77
2022/07/11 11:41:21;;;;;;;2.20;0.60;;;;;;;24.61;42.55;99977.89;105888;1281;109610;-77
2022/07/11 11:43:54;;;;;;;0.60;0.30;;;;;;;24.75;41.28;99977.09;105980;1280;138576;-77
2022/07/11 11:46:29;;;;;;;0.70;0.50;;;;;;;24.82;41.41;99980.73;105896;1281;97996;-77
2022/07/11 11:49:03;;;;;;;1.40;0.40;;;;;;;24.86;40.96;99972.11;106215;1280;137850;-78
2022/07/11 11:51:37;;;;;;;2.20;0.60;;;;;;;24.89;40.68;99964.91;106589;1281;109162;-78
2022/07/11 11:54:10;;;;;;;1.30;0.60;;;;;;;24.96;40.60;99959.80;105812;1281;138293;-77
2022/07/11 11:56:43;;;;;;;0.90;0.70;;;;;;;25.08;40.58;99957.50;105911;1281;99189;-77